Time;durP1;ratioP1;P1;durP2;ratioP2;P2;SDS_P1;SDS_P2;PMS_P1;PMS_P2;Temp;Humidity;BMP_temperature;BMP_pressure;BME280_temperature;BME280_humidity;BME280_pressure;Samples;Min_cycle;Max_cycle;Signal;HPM_P1;HPM_P2
2021/08/30 02:02:39;;;;;;;50.77;36.00;;;16.00;99.90;;;;;;5007152;28;20478;-73
2021/08/30 02:05:08;;;;;;;46.13;34.77;;;15.90;99.90;;;;;;5040839;28;20451;-69
2021/08/30 02:07:35;;;;;;;44.40;34.73;;;15.90;99.90;;;;;;5122082;27;20445;-72
2021/08/30 02:10:02;;;;;;;48.87;35.50;;;15.90;99.90;;;;;;5127289;27;20955;-70
2021/08/30 02:12:29;;;;;;;43.53;33.93;;;15.90;99.90;;;;;;5127522;27;20448;-69
2021/08/30 02:14:56;;;;;;;47.33;34.57;;;15.90;99.90;;;;;;5119216;27;20479;-70
2021/08/30 02:17:29;;;;;;;48.67;34.30;;;15.90;99.90;;;;;;5132375;27;20547;-70
2021/08/30 02:20:02;;;;;;;47.10;35.10;;;15.90;99.90;;;;;;5135250;27;20853;-69
2021/08/30 02:22:33;;;;;;;48.30;34.50;;;15.90;99.90;;;;;;5126965;27;20460;-70
2021/08/30 02:25:06;;;;;;;38.63;33.47;;;16.00;99.90;;;;;;5124646;27;20454;-70
2021/08/30 02:27:40;;;;;;;46.37;36.40;;;16.00;99.90;;;;;;5122534;27;20460;-72
2021/08/30 02:30:13;;;;;;;40.60;32.50;;;16.00;99.90;;;;;;5125963;27;20808;-70
2021/08/30 02:32:42;;;;;;;45.87;34.13;;;16.00;99.90;;;;;;5125680;27;20486;-69
2021/08/30 02:35:14;;;;;;;40.73;35.50;;;16.00;99.90;;;;;;5137393;27;20455;-70
2021/08/30 02:37:43;;;;;;;45.23;33.70;;;15.90;99.90;;;;;;5117904;27;20463;-72
2021/08/30 02:40:11;;;;;;;43.93;35.33;;;15.90;99.90;;;;;;5127953;27;20483;-72
2021/08/30 02:42:41;;;;;;;43.63;31.67;;;15.90;99.90;;;;;;5122590;27;20472;-70
2021/08/30 02:45:11;;;;;;;49.53;32.70;;;15.90;99.90;;;;;;5119248;27;20467;-70
2021/08/30 02:47:39;;;;;;;43.37;34.50;;;15.90;99.90;;;;;;5134883;27;20452;-70
2021/08/30 02:50:07;;;;;;;44.33;33.50;;;15.90;99.90;;;;;;5131721;27;21039;-71
2021/08/30 02:52:35;;;;;;;42.10;32.03;;;15.90;99.90;;;;;;5117259;27;20463;-72
2021/08/30 02:55:05;;;;;;;39.17;33.93;;;15.90;99.90;;;;;;5118855;27;20455;-70
2021/08/30 02:57:33;;;;;;;43.77;32.67;;;15.90;99.90;;;;;;5139707;27;20461;-71
2021/08/30 03:00:01;;;;;;;43.17;33.17;;;15.90;99.90;;;;;;5134930;27;20495;-70
2021/08/30 03:02:28;;;;;;;45.17;31.33;;;15.80;99.90;;;;;;5124798;27;20459;-70
2021/08/30 03:04:57;;;;;;;47.70;32.77;;;15.90;99.90;;;;;;5122570;27;20460;-70
2021/08/30 03:07:28;;;;;;;46.90;33.70;;;15.90;99.90;;;;;;5125893;27;20464;-69
2021/08/30 03:09:56;;;;;;;40.00;31.97;;;15.90;99.90;;;;;;5130106;27;20456;-68
2021/08/30 03:12:26;;;;;;;39.10;32.33;;;15.90;99.90;;;;;;5120358;27;20452;-71
2021/08/30 03:14:55;;;;;;;45.60;33.33;;;15.90;99.90;;;;;;5131772;27;20447;-71
2021/08/30 03:17:24;;;;;;;45.03;31.57;;;15.90;99.90;;;;;;5135157;27;20836;-71
2021/08/30 03:19:53;;;;;;;42.03;31.23;;;15.90;99.90;;;;;;5126115;27;20574;-73
2021/08/30 03:22:22;;;;;;;39.73;30.30;;;15.90;99.90;;;;;;5123009;27;20947;-71
2021/08/30 03:24:50;;;;;;;34.43;29.40;;;15.90;99.90;;;;;;5133890;27;20486;-70
2021/08/30 03:27:17;;;;;;;48.30;33.20;;;15.90;99.90;;;;;;5131459;27;20448;-72
2021/08/30 03:29:48;;;;;;;41.10;31.33;;;15.90;99.90;;;;;;5123845;27;20459;-73
2021/08/30 03:32:16;;;;;;;45.20;31.10;;;15.90;99.90;;;;;;5128574;27;20459;-73
2021/08/30 03:34:44;;;;;;;36.87;29.80;;;15.90;99.90;;;;;;5131011;27;20453;-70
2021/08/30 03:37:12;;;;;;;41.17;29.60;;;15.80;99.90;;;;;;5120367;27;20463;-71
2021/08/30 03:39:40;;;;;;;41.10;30.17;;;15.80;99.90;;;;;;5132764;27;20494;-71
2021/08/30 03:42:08;;;;;;;41.10;31.50;;;15.80;99.90;;;;;;5137903;27;20458;-70
2021/08/30 03:44:36;;;;;;;35.50;30.27;;;15.90;99.90;;;;;;5135246;27;20524;-73
2021/08/30 03:47:06;;;;;;;34.87;29.07;;;15.80;99.90;;;;;;5128844;27;21007;-68
2021/08/30 03:49:34;;;;;;;36.47;29.50;;;15.80;99.90;;;;;;5130697;27;20475;-69
2021/08/30 03:52:02;;;;;;;38.47;27.80;;;15.80;99.90;;;;;;5136576;27;21018;-71
2021/08/30 03:54:29;;;;;;;41.90;30.60;;;15.80;99.90;;;;;;5130606;27;20450;-69
2021/08/30 03:56:56;;;;;;;38.60;30.43;;;15.80;99.90;;;;;;5126966;27;20467;-69
2021/08/30 03:59:26;;;;;;;35.03;28.70;;;15.80;99.90;;;;;;5128839;27;20565;-69
2021/08/30 04:01:54;;;;;;;31.90;26.60;;;15.80;99.90;;;;;;5126038;27;20540;-71
2021/08/30 04:04:25;;;;;;;40.13;28.60;;;15.90;99.90;;;;;;5119224;27;21255;-70
2021/08/30 04:06:53;;;;;;;38.70;29.53;;;15.90;99.90;;;;;;5123621;27;20855;-69
2021/08/30 04:09:21;;;;;;;34.03;27.53;;;15.90;99.90;;;;;;5128849;27;20466;-69
2021/08/30 04:11:48;;;;;;;39.97;27.57;;;15.90;99.90;;;;;;5130197;27;20486;-69
2021/08/30 04:14:16;;;;;;;36.70;27.80;;;15.90;99.90;;;;;;5131041;27;20467;-69
2021/08/30 04:16:45;;;;;;;38.33;27.03;;;15.90;99.90;;;;;;5132735;27;20503;-69
2021/08/30 04:19:13;;;;;;;36.63;29.73;;;15.90;99.90;;;;;;5124036;27;20547;-70
2021/08/30 04:21:42;;;;;;;36.73;27.20;;;15.80;99.90;;;;;;5139195;27;20476;-72
2021/08/30 04:24:09;;;;;;;37.93;28.77;;;15.90;99.90;;;;;;5137792;27;20459;-71
2021/08/30 04:26:36;;;;;;;32.20;27.77;;;15.80;99.90;;;;;;5125432;27;20460;-69
2021/08/30 04:29:04;;;;;;;45.13;29.30;;;15.80;99.90;;;;;;5125544;27;20456;-71
2021/08/30 04:31:31;;;;;;;43.00;30.50;;;15.90;99.90;;;;;;5131884;27;20463;-69
2021/08/30 04:33:58;;;;;;;38.03;29.70;;;15.90;99.90;;;;;;5127686;27;20939;-69
2021/08/30 04:36:26;;;;;;;36.73;30.30;;;15.90;99.90;;;;;;5136037;27;20462;-69
2021/08/30 04:38:54;;;;;;;35.93;30.10;;;15.80;99.90;;;;;;5125605;27;20539;-69
2021/08/30 04:41:21;;;;;;;34.43;29.27;;;15.80;99.90;;;;;;5128655;27;20480;-69
2021/08/30 04:43:50;;;;;;;41.87;31.03;;;15.80;99.90;;;;;;5126891;27;20453;-69
2021/08/30 04:46:17;;;;;;;52.50;33.53;;;15.80;99.90;;;;;;5131670;27;20480;-69
2021/08/30 04:48:44;;;;;;;39.77;31.00;;;15.90;99.90;;;;;;5132168;27;20468;-69
2021/08/30 04:51:11;;;;;;;37.80;31.10;;;15.90;99.90;;;;;;5135643;27;21122;-69
2021/08/30 04:53:38;;;;;;;44.50;29.23;;;15.80;99.90;;;;;;5134269;27;20793;-69
2021/08/30 04:56:06;;;;;;;42.37;29.60;;;15.90;99.90;;;;;;5129556;27;20922;-69
2021/08/30 04:58:34;;;;;;;43.00;30.43;;;15.90;99.90;;;;;;5117409;27;20456;-69
2021/08/30 05:01:01;;;;;;;33.87;30.10;;;15.80;99.90;;;;;;5135685;27;20485;-69
2021/08/30 05:03:28;;;;;;;38.97;30.03;;;15.80;99.90;;;;;;5126144;27;20961;-70
2021/08/30 05:05:54;;;;;;;38.57;31.40;;;15.80;99.90;;;;;;5135143;27;20466;-70
2021/08/30 05:08:21;;;;;;;39.83;31.00;;;15.80;99.90;;;;;;5126979;27;20906;-70
2021/08/30 05:10:48;;;;;;;43.73;31.10;;;15.80;99.90;;;;;;5127863;27;20804;-69
2021/08/30 05:13:17;;;;;;;36.10;30.23;;;15.80;99.90;;;;;;5125077;27;20452;-69
2021/08/30 05:15:44;;;;;;;39.27;30.30;;;15.80;99.90;;;;;;5136430;27;20473;-70
2021/08/30 05:18:11;;;;;;;33.33;29.47;;;15.90;99.90;;;;;;5136120;27;20453;-70
2021/08/30 05:20:38;;;;;;;35.60;29.40;;;15.90;99.90;;;;;;5124066;27;20477;-70
2021/08/30 05:23:06;;;;;;;36.50;28.37;;;15.90;99.90;;;;;;5122115;27;20456;-70
2021/08/30 05:25:33;;;;;;;33.23;29.20;;;16.00;99.90;;;;;;5127680;27;20934;-70
2021/08/30 05:28:01;;;;;;;37.13;28.77;;;16.00;99.90;;;;;;5129455;27;20962;-69
2021/08/30 05:30:31;;;;;;;42.50;31.53;;;16.00;99.90;;;;;;5134061;27;20540;-71
2021/08/30 05:32:58;;;;;;;39.53;32.83;;;16.00;99.90;;;;;;5117954;27;20453;-70
2021/08/30 05:35:25;;;;;;;39.33;29.90;;;16.00;99.90;;;;;;5116260;27;21214;-70
2021/08/30 05:37:52;;;;;;;41.47;31.33;;;16.00;99.90;;;;;;5116752;27;20530;-70
2021/08/30 05:40:19;;;;;;;36.23;32.00;;;15.90;99.90;;;;;;5117696;27;20988;-70
2021/08/30 05:42:46;;;;;;;37.47;31.53;;;15.90;99.90;;;;;;5118256;27;20464;-70
2021/08/30 05:45:13;;;;;;;39.10;32.47;;;15.90;99.90;;;;;;5127376;27;20453;-72
2021/08/30 05:47:42;;;;;;;42.97;31.23;;;15.90;99.90;;;;;;5126920;27;21233;-70
2021/08/30 05:50:10;;;;;;;41.57;30.80;;;15.90;99.90;;;;;;5126269;27;20981;-69
2021/08/30 05:52:37;;;;;;;35.20;30.87;;;16.00;99.90;;;;;;5118418;27;20469;-70
2021/08/30 05:55:04;;;;;;;36.63;30.13;;;15.90;99.90;;;;;;5125212;27;20453;-71
2021/08/30 05:57:31;;;;;;;41.47;32.30;;;16.00;99.90;;;;;;5123382;27;20469;-70
2021/08/30 05:59:58;;;;;;;44.40;31.20;;;16.10;99.90;;;;;;5124044;27;20503;-70
2021/08/30 06:02:25;;;;;;;39.70;30.70;;;16.10;99.90;;;;;;5116963;27;20460;-71
2021/08/30 06:04:53;;;;;;;43.10;31.40;;;16.10;99.90;;;;;;5117190;27;20461;-69
2021/08/30 06:07:20;;;;;;;36.70;31.40;;;16.10;99.90;;;;;;5116668;27;20473;-70
2021/08/30 06:09:48;;;;;;;40.13;31.30;;;16.20;99.90;;;;;;5126120;27;21007;-70
2021/08/30 06:12:15;;;;;;;35.10;28.17;;;16.30;99.90;;;;;;5125374;27;20456;-72
2021/08/30 06:14:42;;;;;;;35.07;27.60;;;16.30;99.90;;;;;;5123538;27;20471;-71
2021/08/30 06:17:09;;;;;;;40.43;31.23;;;16.30;99.90;;;;;;5127028;27;20474;-71
2021/08/30 06:19:35;;;;;;;34.47;30.67;;;16.40;99.90;;;;;;5126277;27;20461;-72
2021/08/30 06:22:07;;;;;;;33.50;28.47;;;16.40;99.90;;;;;;5124654;27;20852;-72
2021/08/30 06:24:34;;;;;;;39.20;29.77;;;16.50;99.90;;;;;;5116322;27;20448;-71
2021/08/30 06:27:01;;;;;;;35.53;28.90;;;16.60;99.90;;;;;;5122928;27;20961;-70
2021/08/30 06:29:28;;;;;;;34.80;29.10;;;16.60;99.90;;;;;;5122267;27;20542;-69
2021/08/30 06:31:56;;;;;;;32.03;28.17;;;16.70;99.90;;;;;;5120173;27;20448;-69
2021/08/30 06:34:24;;;;;;;35.63;28.30;;;16.70;99.90;;;;;;5126512;27;20448;-71
2021/08/30 06:36:51;;;;;;;35.13;28.90;;;16.70;99.90;;;;;;5122068;27;20953;-70
2021/08/30 06:39:20;;;;;;;35.47;27.40;;;16.80;99.90;;;;;;5115615;27;20453;-70
2021/08/30 06:41:46;;;;;;;39.30;29.17;;;16.80;99.90;;;;;;5120179;27;20484;-70
2021/08/30 06:44:13;;;;;;;38.83;28.30;;;16.80;99.90;;;;;;5118361;27;20459;-72
2021/08/30 06:46:40;;;;;;;46.37;30.00;;;16.90;99.90;;;;;;5121990;27;20745;-69
2021/08/30 06:49:07;;;;;;;34.30;27.70;;;17.00;99.90;;;;;;5117737;27;20529;-71
2021/08/30 06:51:34;;;;;;;37.70;27.67;;;17.00;99.90;;;;;;5116053;27;20448;-70
2021/08/30 06:54:01;;;;;;;36.80;28.37;;;17.00;99.90;;;;;;5118365;27;20471;-70
2021/08/30 06:56:29;;;;;;;32.00;25.90;;;17.10;99.90;;;;;;5113032;27;20493;-73
2021/08/30 06:58:57;;;;;;;35.47;27.80;;;17.30;99.90;;;;;;5112412;27;20601;-70
2021/08/30 07:01:24;;;;;;;31.20;27.80;;;17.40;99.90;;;;;;5115482;27;20837;-70
2021/08/30 07:03:51;;;;;;;33.33;28.00;;;17.50;99.90;;;;;;5121365;27;20455;-72
2021/08/30 07:06:18;;;;;;;31.20;27.90;;;17.70;99.90;;;;;;5109299;27;20472;-72
2021/08/30 07:08:45;;;;;;;30.57;27.40;;;17.70;99.90;;;;;;5119926;27;20452;-70
2021/08/30 07:11:12;;;;;;;29.43;26.33;;;17.60;99.90;;;;;;5116213;27;20460;-70
2021/08/30 07:13:40;;;;;;;30.10;26.90;;;17.60;99.90;;;;;;5118452;27;20466;-69
2021/08/30 07:16:08;;;;;;;31.27;27.97;;;17.60;99.90;;;;;;5119365;27;20492;-69
2021/08/30 07:18:36;;;;;;;34.90;28.03;;;17.50;99.90;;;;;;5119303;27;20487;-72
2021/08/30 07:21:03;;;;;;;35.90;28.10;;;17.50;99.90;;;;;;5120626;27;20842;-71
2021/08/30 07:23:31;;;;;;;32.07;28.80;;;17.50;99.90;;;;;;5129757;27;20449;-70
2021/08/30 07:25:58;;;;;;;41.80;29.00;;;17.50;99.90;;;;;;5114649;27;20509;-72
2021/08/30 07:28:25;;;;;;;35.97;27.50;;;17.40;99.90;;;;;;5121088;27;20456;-69
2021/08/30 07:30:54;;;;;;;35.63;28.93;;;17.50;99.90;;;;;;5117763;28;20919;-73
2021/08/30 07:33:21;;;;;;;33.60;27.80;;;17.50;99.90;;;;;;5124168;27;20810;-71
2021/08/30 07:35:48;;;;;;;33.23;28.80;;;17.60;99.90;;;;;;5120727;27;20450;-70
2021/08/30 07:38:15;;;;;;;31.00;27.80;;;17.60;99.90;;;;;;5128371;27;20641;-70
2021/08/30 07:40:42;;;;;;;32.17;27.20;;;17.40;99.90;;;;;;5118525;27;20507;-72
2021/08/30 07:43:10;;;;;;;33.20;27.80;;;17.50;99.90;;;;;;5118096;27;20464;-70
2021/08/30 07:45:37;;;;;;;29.80;26.80;;;17.40;99.90;;;;;;5122823;27;20853;-70
2021/08/30 07:48:07;;;;;;;28.97;25.80;;;17.30;99.90;;;;;;5120373;27;20456;-70
2021/08/30 07:50:34;;;;;;;33.13;27.83;;;17.20;99.90;;;;;;5124519;27;20942;-71
2021/08/30 07:53:02;;;;;;;32.30;28.90;;;17.20;99.90;;;;;;5116720;27;20499;-69
2021/08/30 07:55:35;;;;;;;33.77;28.07;;;17.20;99.90;;;;;;5124824;27;20459;-70
2021/08/30 07:58:03;;;;;;;37.33;27.50;;;17.20;99.90;;;;;;5124476;27;20468;-70
2021/08/30 08:00:30;;;;;;;35.10;28.10;;;17.10;99.90;;;;;;5112806;28;20994;-70
2021/08/30 08:02:57;;;;;;;31.63;27.30;;;17.10;99.90;;;;;;5117218;27;20457;-69
2021/08/30 08:05:26;;;;;;;33.17;26.50;;;17.10;99.90;;;;;;5124612;27;21022;-70
2021/08/30 08:07:53;;;;;;;33.73;29.20;;;17.10;99.90;;;;;;5121837;27;20455;-71
2021/08/30 08:10:21;;;;;;;32.13;27.87;;;17.10;99.90;;;;;;5109776;27;20552;-70
2021/08/30 08:12:48;;;;;;;39.00;29.17;;;17.10;99.90;;;;;;5115319;27;20863;-73
2021/08/30 08:15:16;;;;;;;36.43;29.70;;;17.20;99.90;;;;;;5128597;27;20838;-72
2021/08/30 08:17:43;;;;;;;34.10;28.77;;;17.30;99.90;;;;;;5123412;27;20490;-71
2021/08/30 08:20:11;;;;;;;34.47;29.77;;;17.40;99.90;;;;;;5118366;27;20571;-70
2021/08/30 08:22:39;;;;;;;38.83;31.13;;;17.50;99.90;;;;;;5116598;27;20832;-70
2021/08/30 08:25:07;;;;;;;33.13;29.20;;;17.60;99.90;;;;;;5115266;27;20866;-70
2021/08/30 08:27:36;;;;;;;36.53;28.63;;;17.60;99.90;;;;;;5118642;27;20448;-72
2021/08/30 08:30:05;;;;;;;31.53;28.27;;;17.60;99.90;;;;;;5124223;27;20518;-72
2021/08/30 08:32:32;;;;;;;32.80;28.47;;;17.80;99.90;;;;;;5132418;27;20447;-73
2021/08/30 08:34:58;;;;;;;32.77;27.97;;;18.00;99.90;;;;;;5117948;27;20456;-70
2021/08/30 08:37:26;;;;;;;32.83;26.30;;;18.00;99.90;;;;;;5118963;27;20464;-71
2021/08/30 08:39:55;;;;;;;31.90;27.47;;;18.10;99.90;;;;;;5117334;27;20841;-70
2021/08/30 08:42:22;;;;;;;34.10;27.47;;;18.20;99.90;;;;;;5126502;27;20523;-73
2021/08/30 08:44:49;;;;;;;29.20;26.30;;;18.40;99.90;;;;;;5124220;27;20452;-69
2021/08/30 08:47:17;;;;;;;30.30;26.50;;;18.50;99.90;;;;;;5125187;27;20460;-71
2021/08/30 08:49:50;;;;;;;32.13;28.70;;;18.80;99.90;;;;;;5122142;27;20954;-71
2021/08/30 08:52:19;;;;;;;34.30;29.53;;;18.60;99.90;;;;;;5122019;27;20456;-72
2021/08/30 08:54:46;;;;;;;32.53;28.97;;;18.70;99.90;;;;;;5122750;27;20825;-70
2021/08/30 08:57:14;;;;;;;31.23;28.10;;;18.80;99.90;;;;;;5123218;27;20929;-71
2021/08/30 08:59:42;;;;;;;30.47;27.67;;;18.90;99.90;;;;;;5123390;27;20481;-71
2021/08/30 09:02:09;;;;;;;31.63;28.07;;;18.70;99.90;;;;;;5133364;27;20484;-71
2021/08/30 09:04:37;;;;;;;30.67;26.50;;;18.50;99.90;;;;;;5107161;27;20452;-70
2021/08/30 09:07:12;;;;;;;32.13;28.57;;;18.30;99.90;;;;;;5118294;27;20572;-71
2021/08/30 09:09:40;;;;;;;31.13;28.07;;;18.20;99.90;;;;;;5117511;27;20460;-71
2021/08/30 09:12:20;;;;;;;30.33;27.43;;;18.20;99.90;;;;;;5121674;27;20469;-71
2021/08/30 09:14:48;;;;;;;29.57;26.87;;;18.30;99.90;;;;;;5132566;27;20527;-70
2021/08/30 09:17:16;;;;;;;31.07;27.87;;;18.30;99.90;;;;;;5124872;27;21054;-74
2021/08/30 09:19:43;;;;;;;32.90;27.50;;;18.30;99.90;;;;;;5120786;27;20844;-71
2021/08/30 09:22:11;;;;;;;41.30;28.00;;;18.40;99.90;;;;;;5120118;27;20816;-71
2021/08/30 09:24:39;;;;;;;30.73;27.63;;;18.20;99.90;;;;;;5118349;27;20452;-72
2021/08/30 09:27:08;;;;;;;31.80;28.70;;;18.20;99.90;;;;;;5130613;27;20454;-74
2021/08/30 09:29:39;;;;;;;33.30;28.53;;;18.20;99.90;;;;;;5122063;27;20448;-74
2021/08/30 09:32:07;;;;;;;30.47;27.40;;;18.30;99.90;;;;;;5126231;27;20465;-72
2021/08/30 09:34:37;;;;;;;32.50;29.20;;;18.50;99.90;;;;;;5129746;27;20458;-71
2021/08/30 09:37:05;;;;;;;29.40;26.60;;;18.90;99.90;;;;;;5116890;27;20460;-72
2021/08/30 09:39:33;;;;;;;30.90;27.50;;;19.00;99.90;;;;;;5121889;27;20456;-72
2021/08/30 09:42:01;;;;;;;30.90;27.80;;;19.40;99.90;;;;;;5121108;27;20487;-72
2021/08/30 09:44:30;;;;;;;29.40;26.43;;;19.50;99.90;;;;;;5133306;27;20835;-71
2021/08/30 09:47:08;;;;;;;30.63;27.53;;;19.60;99.90;;;;;;5118015;27;20530;-71
2021/08/30 09:49:36;;;;;;;31.43;28.13;;;19.60;99.90;;;;;;5133473;27;20451;-74
2021/08/30 09:52:03;;;;;;;30.63;27.50;;;19.70;99.90;;;;;;5127041;27;20459;-71
2021/08/30 09:54:30;;;;;;;31.37;28.33;;;19.70;99.90;;;;;;5119918;27;20457;-73
2021/08/30 09:56:58;;;;;;;30.63;27.80;;;19.90;99.90;;;;;;5122778;27;20758;-72
2021/08/30 09:59:27;;;;;;;31.83;28.60;;;20.20;99.90;;;;;;5120723;27;20511;-73
2021/08/30 10:01:57;;;;;;;31.63;28.30;;;20.10;99.90;;;;;;5117271;27;20503;-72
2021/08/30 10:04:27;;;;;;;29.70;27.00;;;20.10;99.90;;;;;;5115789;27;20448;-72
2021/08/30 10:06:56;;;;;;;30.13;27.20;;;20.20;99.90;;;;;;5121521;27;20457;-72
2021/08/30 10:09:23;;;;;;;28.93;26.23;;;20.30;99.90;;;;;;5119765;27;20453;-71
2021/08/30 10:11:52;;;;;;;30.23;27.33;;;20.40;99.90;;;;;;5127839;27;20448;-71
2021/08/30 10:14:22;;;;;;;28.60;25.93;;;20.50;99.90;;;;;;5116322;27;21032;-73
2021/08/30 10:16:51;;;;;;;28.43;25.63;;;20.60;99.90;;;;;;5133047;27;20487;-70
2021/08/30 10:19:29;;;;;;;30.07;27.13;;;20.40;99.90;;;;;;5116613;27;20452;-73
2021/08/30 10:21:57;;;;;;;29.47;26.93;;;20.40;99.90;;;;;;5121689;27;20475;-72
2021/08/30 10:24:28;;;;;;;28.80;26.20;;;20.50;99.90;;;;;;5123388;27;20461;-71
2021/08/30 10:27:03;;;;;;;31.03;28.03;;;20.40;99.90;;;;;;5119576;27;20453;-71
2021/08/30 10:29:33;;;;;;;30.03;26.93;;;20.40;99.90;;;;;;5118736;27;20488;-72
2021/08/30 10:32:00;;;;;;;29.93;27.30;;;20.50;99.90;;;;;;5116608;27;20539;-71
2021/08/30 10:34:31;;;;;;;30.07;27.20;;;20.60;99.90;;;;;;5123681;27;20943;-70
2021/08/30 10:36:59;;;;;;;28.53;26.17;;;20.70;99.90;;;;;;5116934;27;20967;-73
2021/08/30 10:39:38;;;;;;;28.80;26.07;;;20.80;99.90;;;;;;5115124;27;20448;-71
2021/08/30 10:42:05;;;;;;;32.83;28.13;;;20.80;99.90;;;;;;5111706;27;20550;-71
2021/08/30 10:44:34;;;;;;;28.97;26.70;;;20.90;99.90;;;;;;5130610;27;20899;-70
2021/08/30 10:47:12;;;;;;;30.43;27.77;;;20.70;99.90;;;;;;5121035;27;20467;-71
2021/08/30 10:49:43;;;;;;;28.43;25.80;;;20.80;99.90;;;;;;5124324;27;20456;-73
2021/08/30 10:52:12;;;;;;;29.20;26.17;;;20.90;99.90;;;;;;5119496;27;20796;-71
2021/08/30 10:54:52;;;;;;;29.30;26.33;;;21.10;99.90;;;;;;5120185;27;20456;-70
2021/08/30 10:57:20;;;;;;;27.60;25.50;;;21.20;99.90;;;;;;5117995;27;20464;-71
2021/08/30 10:59:58;;;;;;;28.60;26.17;;;21.30;99.90;;;;;;5130213;27;21246;-70
2021/08/30 11:02:36;;;;;;;29.70;27.17;;;21.20;99.90;;;;;;5133859;27;20485;-70
2021/08/30 11:05:05;;;;;;;29.33;26.93;;;21.30;99.90;;;;;;5128400;27;20451;-71
2021/08/30 11:07:32;;;;;;;30.03;27.67;;;21.40;99.90;;;;;;5121877;27;20460;-69
2021/08/30 11:10:01;;;;;;;30.93;27.80;;;21.60;99.90;;;;;;5120787;27;20468;-70
2021/08/30 11:12:28;;;;;;;28.67;26.33;;;21.80;99.90;;;;;;5125890;27;20448;-73
2021/08/30 11:14:57;;;;;;;29.73;27.20;;;21.90;99.90;;;;;;5122625;27;20452;-69
2021/08/30 11:17:27;;;;;;;30.07;27.30;;;22.00;99.90;;;;;;5125330;27;20475;-71
2021/08/30 11:19:55;;;;;;;28.47;26.10;;;22.10;99.90;;;;;;5118936;27;20470;-72
2021/08/30 11:22:24;;;;;;;28.40;26.00;;;22.40;99.90;;;;;;5118610;27;20473;-70
2021/08/30 11:24:52;;;;;;;28.60;26.20;;;22.40;99.90;;;;;;5119127;27;20460;-70
2021/08/30 11:27:21;;;;;;;29.47;26.70;;;22.20;99.90;;;;;;5117920;27;20461;-73
2021/08/30 11:29:50;;;;;;;28.50;25.73;;;21.90;99.90;;;;;;5118679;28;20465;-70
2021/08/30 11:32:19;;;;;;;27.27;24.80;;;21.70;99.90;;;;;;5127874;27;20877;-72
2021/08/30 11:34:48;;;;;;;27.70;25.40;;;21.40;99.90;;;;;;5118313;27;20463;-70
2021/08/30 11:37:16;;;;;;;27.07;24.77;;;21.30;99.90;;;;;;5120469;27;20459;-70
2021/08/30 11:39:47;;;;;;;28.37;25.70;;;21.20;99.90;;;;;;5115999;28;20463;-71
2021/08/30 11:42:16;;;;;;;27.60;25.30;;;20.80;99.90;;;;;;5120797;27;20488;-70
2021/08/30 11:44:44;;;;;;;27.00;24.50;;;20.60;99.90;;;;;;5122510;27;20444;-73
2021/08/30 11:47:13;;;;;;;28.00;25.80;;;20.50;99.90;;;;;;5118297;27;20461;-70
2021/08/30 11:49:42;;;;;;;30.70;28.30;;;20.20;99.90;;;;;;5118459;27;20464;-69
2021/08/30 11:52:10;;;;;;;34.43;31.60;;;20.00;99.90;;;;;;5125479;27;20464;-69
2021/08/30 11:54:38;;;;;;;34.97;31.97;;;19.80;99.90;;;;;;5120250;27;20958;-71
2021/08/30 11:57:09;;;;;;;32.90;30.20;;;19.50;99.90;;;;;;5125384;27;20464;-68
2021/08/30 11:59:37;;;;;;;33.10;30.23;;;19.20;99.90;;;;;;5120703;27;20484;-72
2021/08/30 12:02:06;;;;;;;33.30;29.17;;;19.10;99.90;;;;;;5134006;27;20470;-70
2021/08/30 12:04:35;;;;;;;33.67;30.77;;;19.00;99.90;;;;;;5116009;27;20449;-69
2021/08/30 12:07:04;;;;;;;41.70;31.77;;;18.90;99.90;;;;;;5124440;27;20487;-71
2021/08/30 12:09:39;;;;;;;35.60;32.20;;;18.70;99.90;;;;;;5116162;27;20939;-70
2021/08/30 12:12:16;;;;;;;35.13;32.03;;;18.60;99.90;;;;;;5121902;27;20468;-70
2021/08/30 12:14:57;;;;;;;34.97;31.87;;;18.60;99.90;;;;;;5123397;27;20939;-69
2021/08/30 12:17:25;;;;;;;34.63;31.53;;;18.60;99.90;;;;;;5114684;27;20496;-71
2021/08/30 12:19:53;;;;;;;37.03;33.40;;;18.60;99.90;;;;;;5115702;27;20550;-69
2021/08/30 12:22:26;;;;;;;37.93;34.23;;;18.50;99.90;;;;;;5121512;27;20480;-70
2021/08/30 12:25:05;;;;;;;37.30;33.80;;;18.50;99.90;;;;;;5120065;27;20818;-70
2021/08/30 12:27:36;;;;;;;38.87;35.07;;;18.70;99.90;;;;;;5118748;27;20460;-71
2021/08/30 12:30:15;;;;;;;38.07;34.20;;;18.90;99.90;;;;;;5125762;27;20455;-71
2021/08/30 12:32:55;;;;;;;41.53;37.20;;;19.20;99.90;;;;;;5125282;27;20578;-69
2021/08/30 12:35:25;;;;;;;39.43;35.63;;;19.50;99.90;;;;;;5124697;27;20448;-69
2021/08/30 12:37:54;;;;;;;39.43;35.47;;;19.80;99.90;;;;;;5114040;27;20528;-71
2021/08/30 12:40:22;;;;;;;41.57;37.47;;;20.00;99.90;;;;;;5129129;27;20999;-70
2021/08/30 12:42:51;;;;;;;37.30;33.80;;;20.30;99.90;;;;;;5130843;27;20506;-72
2021/08/30 12:45:19;;;;;;;35.97;32.70;;;20.90;99.90;;;;;;5120486;27;20452;-70
2021/08/30 12:47:46;;;;;;;34.40;30.77;;;21.50;99.90;;;;;;5132641;27;20984;-71
2021/08/30 12:50:14;;;;;;;29.70;27.27;;;21.80;99.90;;;;;;5126011;27;20964;-70
2021/08/30 12:52:41;;;;;;;31.03;28.10;;;22.30;99.90;;;;;;5126830;27;20456;-73
2021/08/30 12:55:12;;;;;;;30.73;27.90;;;22.30;99.90;;;;;;5113029;27;20544;-70
2021/08/30 12:57:39;;;;;;;28.93;26.60;;;22.40;99.90;;;;;;5130103;27;20463;-71
2021/08/30 13:00:11;;;;;;;29.23;27.00;;;22.70;99.90;;;;;;5118060;27;20473;-72
2021/08/30 13:02:41;;;;;;;28.57;26.27;;;22.90;99.90;;;;;;5126394;27;20472;-73
2021/08/30 13:05:10;;;;;;;26.97;24.87;;;23.10;99.90;;;;;;5118609;27;20457;-71
2021/08/30 13:07:37;;;;;;;26.20;24.10;;;23.00;99.90;;;;;;5123862;27;20483;-71
2021/08/30 13:10:05;;;;;;;28.37;25.60;;;23.00;99.90;;;;;;5125439;27;20535;-71
2021/08/30 13:12:32;;;;;;;26.17;24.17;;;23.10;99.90;;;;;;5113300;27;20472;-71
2021/08/30 13:14:59;;;;;;;25.00;23.00;;;23.20;99.90;;;;;;5117025;27;20551;-74
2021/08/30 13:17:29;;;;;;;24.23;22.23;;;24.30;99.90;;;;;;5123698;27;20487;-72
2021/08/30 13:19:56;;;;;;;23.57;21.97;;;25.10;99.90;;;;;;5130367;27;20468;-72
2021/08/30 13:22:23;;;;;;;23.50;21.80;;;26.10;99.90;;;;;;5130705;27;20734;-71
2021/08/30 13:24:50;;;;;;;22.60;20.70;;;26.00;99.90;;;;;;5126912;27;20440;-71
2021/08/30 13:27:18;;;;;;;22.87;20.50;;;26.30;99.90;;;;;;5126682;27;20456;-73
2021/08/30 13:29:45;;;;;;;21.97;19.93;;;26.80;99.90;;;;;;5124839;27;20451;-70
2021/08/30 13:32:16;;;;;;;25.93;20.60;;;26.40;99.90;;;;;;5115647;27;20825;-70
2021/08/30 13:34:44;;;;;;;20.47;19.17;;;26.10;99.90;;;;;;5119953;27;20457;-72
2021/08/30 13:37:13;;;;;;;21.20;19.63;;;25.40;99.90;;;;;;5124782;27;20453;-73
2021/08/30 13:39:40;;;;;;;22.10;20.43;;;25.90;99.90;;;;;;5117518;27;20465;-71
2021/08/30 13:42:08;;;;;;;21.20;19.90;;;26.40;99.90;;;;;;5125674;27;20456;-70
2021/08/30 13:44:36;;;;;;;27.30;22.13;;;27.20;99.90;;;;;;5120148;27;20954;-71
2021/08/30 13:47:03;;;;;;;21.90;20.30;;;27.60;99.90;;;;;;5122353;27;21113;-74
2021/08/30 13:49:30;;;;;;;22.47;20.77;;;27.70;99.90;;;;;;5124619;27;20547;-71
2021/08/30 13:51:59;;;;;;;22.30;20.70;;;27.70;99.90;;;;;;5131428;27;20464;-72
2021/08/30 13:54:26;;;;;;;21.67;20.37;;;27.30;99.90;;;;;;5131341;27;21409;-71
2021/08/30 13:56:52;;;;;;;23.13;21.37;;;26.60;99.90;;;;;;5122718;27;20475;-71
2021/08/30 13:59:19;;;;;;;22.30;20.90;;;25.90;99.90;;;;;;5120351;27;20812;-73
2021/08/30 14:01:46;;;;;;;22.77;20.90;;;25.00;99.90;;;;;;5119556;27;20479;-71
2021/08/30 14:04:14;;;;;;;22.63;20.97;;;24.60;99.90;;;;;;5123906;27;20480;-72
2021/08/30 14:06:41;;;;;;;23.20;21.20;;;24.30;99.90;;;;;;5130077;27;20461;-71
2021/08/30 14:09:09;;;;;;;22.87;21.37;;;23.50;99.90;;;;;;5131558;27;20463;-70
2021/08/30 14:11:37;;;;;;;24.40;22.50;;;23.20;99.90;;;;;;5121256;27;20464;-71
2021/08/30 14:14:03;;;;;;;23.93;21.50;;;23.00;99.90;;;;;;5121564;27;20993;-70
2021/08/30 14:16:30;;;;;;;23.13;21.33;;;22.50;99.90;;;;;;5118620;27;20492;-70
2021/08/30 14:18:58;;;;;;;23.93;22.07;;;22.10;99.90;;;;;;5124875;27;20464;-74
2021/08/30 14:21:25;;;;;;;23.00;21.20;;;21.90;99.90;;;;;;5114171;27;21190;-71
2021/08/30 14:23:52;;;;;;;23.13;21.43;;;21.80;99.90;;;;;;5130196;27;20490;-74
2021/08/30 14:26:20;;;;;;;23.20;21.57;;;21.70;99.90;;;;;;5116623;27;20895;-71
2021/08/30 14:28:47;;;;;;;22.20;20.40;;;21.70;99.90;;;;;;5122630;27;20551;-71
2021/08/30 14:31:14;;;;;;;24.17;22.27;;;21.70;99.90;;;;;;5125802;27;20460;-71
2021/08/30 14:33:42;;;;;;;23.90;21.80;;;21.80;99.90;;;;;;5121796;27;20447;-74
2021/08/30 14:36:10;;;;;;;23.03;21.23;;;21.90;99.90;;;;;;5120701;27;20525;-72